createdAt,value
2022-07-31T00:01:10.106Z,100092.22
2022-07-31T00:03:59.412Z,100098.44
2022-07-31T00:06:47.475Z,100095.72
2022-07-31T00:09:52.371Z,100098.91
2022-07-31T00:12:42.685Z,100097.00
2022-07-31T00:15:30.944Z,100100.19
2022-07-31T00:18:19.011Z,100097.00
2022-07-31T00:21:08.312Z,100095.41
2022-07-31T00:23:56.278Z,100098.50
2022-07-31T00:26:44.496Z,100094.88
2022-07-31T00:29:32.823Z,100095.66
2022-07-31T00:32:20.863Z,100092.38
2022-07-31T00:35:09.760Z,100084.81
2022-07-31T00:38:26.170Z,100080.75
2022-07-31T00:41:09.862Z,100076.88
2022-07-31T00:43:57.889Z,100088.16
2022-07-31T00:46:45.946Z,100087.94
2022-07-31T00:49:37.732Z,100083.78
2022-07-31T00:52:27.138Z,100082.06
2022-07-31T00:55:16.491Z,100078.03
2022-07-31T00:58:04.645Z,100075.59
2022-07-31T01:00:52.808Z,100077.16
2022-07-31T01:03:40.832Z,100070.00
2022-07-31T01:06:29.074Z,100069.22
2022-07-31T01:09:17.614Z,100067.28
2022-07-31T01:12:14.046Z,100070.16
2022-07-31T01:15:06.319Z,100078.69
2022-07-31T01:17:56.259Z,100068.97
2022-07-31T01:20:46.060Z,100077.72
2022-07-31T01:23:55.156Z,100076.97
2022-07-31T01:27:05.683Z,100070.03
2022-07-31T01:30:00.294Z,100072.31
2022-07-31T01:32:51.707Z,100075.97
2022-07-31T01:35:44.332Z,100077.25
2022-07-31T01:38:41.370Z,100077.00
2022-07-31T01:41:37.207Z,100070.50
2022-07-31T01:44:28.999Z,100071.59
2022-07-31T01:47:21.219Z,100071.84
2022-07-31T01:50:42.559Z,100061.31
2022-07-31T01:53:22.313Z,100060.81
2022-07-31T01:56:11.322Z,100061.44
2022-07-31T01:59:01.487Z,100058.41
2022-07-31T02:02:01.076Z,100061.44
2022-07-31T02:04:52.670Z,100059.22
2022-07-31T02:07:43.057Z,100050.25
2022-07-31T02:10:32.755Z,100067.34
2022-07-31T02:13:22.687Z,100070.53
2022-07-31T02:16:10.819Z,100064.16
2022-07-31T02:19:00.252Z,100064.94
2022-07-31T02:21:49.679Z,100064.03
2022-07-31T02:24:37.790Z,100041.44
2022-07-31T02:27:53.720Z,100058.69
2022-07-31T02:30:39.065Z,100048.84
2022-07-31T02:33:30.219Z,100050.84
2022-07-31T02:36:19.137Z,100046.69
2022-07-31T02:39:09.862Z,100040.09
2022-07-31T02:42:01.303Z,100040.91
2022-07-31T02:44:51.235Z,100031.91
2022-07-31T02:47:40.001Z,100035.03
2022-07-31T02:50:32.523Z,100040.19
2022-07-31T02:53:21.351Z,100037.81
2022-07-31T02:56:16.563Z,100027.41
2022-07-31T02:59:05.253Z,100033.69
2022-07-31T03:02:08.693Z,100038.03
2022-07-31T03:05:02.264Z,100034.94
2022-07-31T03:07:50.567Z,100036.66
2022-07-31T03:10:38.754Z,100040.28
2022-07-31T03:13:30.647Z,100038.75
2022-07-31T03:16:19.126Z,100027.66
2022-07-31T03:19:09.789Z,100026.09
2022-07-31T03:21:58.472Z,100027.78
2022-07-31T03:24:47.237Z,100022.28
2022-07-31T03:27:36.157Z,100023.16
2022-07-31T03:30:26.093Z,100025.50
2022-07-31T03:33:16.404Z,100023.44
2022-07-31T03:36:04.754Z,100037.31
2022-07-31T03:38:52.863Z,100030.47
2022-07-31T03:41:57.277Z,100031.56
2022-07-31T03:44:46.490Z,100014.53
2022-07-31T03:47:35.993Z,100016.41
2022-07-31T03:50:24.701Z,100032.56
2022-07-31T03:53:14.347Z,100038.47
2022-07-31T03:56:07.288Z,100041.09
2022-07-31T03:58:55.719Z,100040.09
2022-07-31T04:02:10.552Z,100032.75
2022-07-31T04:05:20.568Z,100039.34
2022-07-31T04:08:09.474Z,100036.84
2022-07-31T04:10:57.699Z,100039.94
2022-07-31T04:13:45.956Z,100047.00
2022-07-31T04:16:34.048Z,100051.63
2022-07-31T04:19:22.060Z,100060.56
2022-07-31T04:22:12.246Z,100044.63
2022-07-31T04:25:00.683Z,100049.63
2022-07-31T04:30:58.242Z,100054.66
2022-07-31T04:33:46.543Z,100037.97
2022-07-31T04:36:36.552Z,100058.13
2022-07-31T04:39:25.949Z,100059.13
2022-07-31T04:42:14.207Z,100057.88
2022-07-31T04:45:03.455Z,100065.66
2022-07-31T04:47:51.714Z,100064.03
2022-07-31T04:50:39.801Z,100063.66
2022-07-31T04:53:27.887Z,100055.47
2022-07-31T04:56:37.619Z,100053.41
2022-07-31T04:59:57.884Z,100049.91
2022-07-31T05:02:35.543Z,100059.53
2022-07-31T05:05:23.620Z,100052.66
2022-07-31T05:08:11.695Z,100055.16
2022-07-31T05:11:22.558Z,100055.22
2022-07-31T05:14:14.186Z,100061.50
2022-07-31T05:17:02.178Z,100067.88
2022-07-31T05:20:07.707Z,100058.81
2022-07-31T05:23:06.496Z,100056.88
2022-07-31T05:26:14.777Z,100063.16
2022-07-31T05:29:03.912Z,100061.16
2022-07-31T05:31:59.670Z,100067.00
2022-07-31T05:34:48.720Z,100011.06
2022-07-31T05:37:36.730Z,100063.34
2022-07-31T05:40:26.936Z,100071.47
2022-07-31T05:43:33.503Z,100049.41
2022-07-31T05:46:25.518Z,100072.34
2022-07-31T05:49:14.949Z,100067.66
2022-07-31T05:52:06.381Z,100075.84
2022-07-31T05:54:54.657Z,100067.03
2022-07-31T05:57:48.709Z,100074.81
2022-07-31T06:00:37.232Z,100070.97
2022-07-31T06:03:27.758Z,100071.81
2022-07-31T06:06:24.305Z,100062.13
2022-07-31T06:09:13.475Z,100062.03
2022-07-31T06:12:05.985Z,100061.34
2022-07-31T06:14:54.363Z,100060.78
2022-07-31T06:17:53.676Z,100063.94
2022-07-31T06:20:49.420Z,100072.28
2022-07-31T06:23:38.873Z,100064.22
2022-07-31T06:26:38.584Z,100064.84
2022-07-31T06:29:41.100Z,100073.94
2022-07-31T06:32:31.100Z,100054.16
2022-07-31T06:35:19.138Z,100065.06
2022-07-31T06:38:37.734Z,100071.47
2022-07-31T06:41:50.453Z,100075.59
2022-07-31T06:44:50.456Z,100084.66
2022-07-31T06:48:04.612Z,100076.59
2022-07-31T06:51:29.178Z,100090.47
2022-07-31T06:54:14.078Z,100087.69
2022-07-31T06:57:02.197Z,100091.63
2022-07-31T06:59:50.246Z,100093.25
2022-07-31T07:02:38.376Z,100096.03
2022-07-31T07:05:26.548Z,100092.53
2022-07-31T07:08:16.913Z,100093.09
2022-07-31T07:11:12.110Z,100095.50
2022-07-31T07:14:01.344Z,100093.34
2022-07-31T07:16:49.476Z,100082.88
2022-07-31T07:19:41.284Z,100059.06
2022-07-31T07:22:32.498Z,100080.50
2022-07-31T07:25:23.067Z,100081.19
2022-07-31T07:28:15.361Z,100077.75
2022-07-31T07:31:19.744Z,100077.28
2022-07-31T07:34:09.830Z,100076.50
2022-07-31T07:36:57.893Z,100057.78
2022-07-31T07:39:49.484Z,100074.50
2022-07-31T07:42:37.600Z,100073.53
2022-07-31T07:45:27.396Z,100067.28
2022-07-31T07:48:15.430Z,100071.88
2022-07-31T07:51:23.569Z,100066.56
2022-07-31T07:54:28.230Z,100067.50
2022-07-31T07:57:48.519Z,100061.41
2022-07-31T08:01:07.022Z,100053.00
2022-07-31T08:03:55.275Z,100054.91
2022-07-31T08:06:43.555Z,100060.06
2022-07-31T08:09:31.886Z,100058.09
2022-07-31T08:12:42.606Z,99985.78
2022-07-31T08:15:56.653Z,100053.41
2022-07-31T08:18:54.765Z,100050.03
2022-07-31T08:21:43.496Z,100045.53
2022-07-31T08:24:31.668Z,100045.03
2022-07-31T08:27:39.684Z,100039.25
2022-07-31T08:30:29.229Z,100045.28
2022-07-31T08:33:19.298Z,100033.44
2022-07-31T08:36:16.256Z,100037.59
2022-07-31T08:39:04.686Z,100037.59
2022-07-31T08:42:09.949Z,100036.81
2022-07-31T08:44:58.338Z,100032.63
2022-07-31T08:47:50.969Z,100030.38
2022-07-31T08:50:48.839Z,100019.56
2022-07-31T08:54:03.541Z,100022.06
2022-07-31T08:56:52.937Z,100017.91
2022-07-31T08:59:41.986Z,100024.50
2022-07-31T09:02:29.992Z,100001.34
2022-07-31T09:05:43.466Z,100019.06
2022-07-31T09:08:34.465Z,100020.78
2022-07-31T09:11:25.239Z,100026.78
2022-07-31T09:14:29.610Z,100017.75
2022-07-31T09:17:17.746Z,100017.94
2022-07-31T09:20:06.919Z,100023.16
2022-07-31T09:23:06.024Z,100016.34
2022-07-31T09:25:56.614Z,100013.63
2022-07-31T09:28:48.742Z,100011.81
2022-07-31T09:31:37.091Z,100011.53
2022-07-31T09:34:47.621Z,100005.09
2022-07-31T09:37:40.105Z,100007.09
2022-07-31T09:40:57.568Z,100002.06
2022-07-31T09:43:55.411Z,99999.34
2022-07-31T09:46:48.070Z,99987.06
2022-07-31T09:49:36.556Z,99995.78
2022-07-31T09:52:26.420Z,99987.09
2022-07-31T09:55:17.096Z,99990.78
2022-07-31T09:58:07.158Z,99989.63
2022-07-31T10:01:02.558Z,99982.53
2022-07-31T10:03:53.872Z,99976.13
2022-07-31T10:06:43.059Z,99963.38
2022-07-31T10:09:34.260Z,99975.72
2022-07-31T10:12:50.567Z,99973.66
2022-07-31T10:15:40.699Z,99969.50
2022-07-31T10:19:00.353Z,99967.50
2022-07-31T10:22:05.485Z,99962.38
2022-07-31T10:25:01.840Z,99955.03
2022-07-31T10:27:51.222Z,99952.09
2022-07-31T10:30:39.688Z,99955.53
2022-07-31T10:33:43.679Z,99945.22
2022-07-31T10:37:11.576Z,99949.13
2022-07-31T10:40:27.503Z,99948.63
2022-07-31T10:43:25.608Z,99940.53
2022-07-31T10:46:31.792Z,99935.91
2022-07-31T10:49:43.430Z,99937.88
2022-07-31T10:53:00.316Z,99930.34
2022-07-31T10:56:01.809Z,99903.88
2022-07-31T10:59:00.023Z,99922.28
2022-07-31T11:02:08.373Z,99901.66
2022-07-31T11:05:11.731Z,99901.50
2022-07-31T11:08:19.727Z,99895.16
2022-07-31T11:11:13.465Z,99887.72
2022-07-31T11:14:13.361Z,99900.31
2022-07-31T11:17:07.090Z,99895.66
2022-07-31T11:20:02.796Z,99892.53
2022-07-31T11:22:55.626Z,99892.81
2022-07-31T11:25:46.386Z,99893.81
2022-07-31T11:28:35.320Z,99879.31
2022-07-31T11:31:29.748Z,99879.44
2022-07-31T11:34:17.806Z,99872.69
2022-07-31T11:37:06.652Z,99880.59
2022-07-31T11:39:56.261Z,99872.34
2022-07-31T11:42:47.013Z,99876.34
2022-07-31T11:45:47.055Z,99880.69
2022-07-31T11:48:44.955Z,99867.28
2022-07-31T11:51:33.639Z,99862.91
2022-07-31T11:54:25.522Z,99873.28
2022-07-31T11:57:13.556Z,99867.06
2022-07-31T12:00:29.306Z,99848.72
2022-07-31T12:03:19.546Z,99843.28
2022-07-31T12:06:10.155Z,99838.56
2022-07-31T12:08:58.421Z,99847.75
2022-07-31T12:11:46.462Z,99834.97
2022-07-31T12:14:36.212Z,99842.44
2022-07-31T12:17:25.653Z,99830.56
2022-07-31T12:20:25.337Z,99832.72
2022-07-31T12:23:41.117Z,99832.69
2022-07-31T12:26:31.131Z,99822.84
2022-07-31T12:29:20.184Z,99829.16
2022-07-31T12:32:08.805Z,99815.75
2022-07-31T12:35:06.076Z,99805.38
2022-07-31T12:37:54.149Z,99804.25
2022-07-31T12:40:42.652Z,99800.81
2022-07-31T12:43:30.828Z,99788.97
2022-07-31T12:46:18.820Z,99781.88
2022-07-31T12:49:08.307Z,99786.84
2022-07-31T12:51:58.140Z,99775.78
2022-07-31T12:54:46.436Z,99791.63
2022-07-31T12:57:34.472Z,99771.50
2022-07-31T13:00:27.978Z,99737.63
2022-07-31T13:03:16.016Z,99773.28
2022-07-31T13:06:04.092Z,99782.09
2022-07-31T13:08:53.869Z,99767.47
2022-07-31T13:11:48.158Z,99765.75
2022-07-31T13:14:36.805Z,99766.97
2022-07-31T13:17:24.815Z,99762.25
2022-07-31T13:20:16.617Z,99731.38
2022-07-31T13:23:05.183Z,99744.75
2022-07-31T13:25:54.801Z,99741.34
2022-07-31T13:28:42.896Z,99738.03
2022-07-31T13:31:30.973Z,99710.41
2022-07-31T13:34:18.987Z,99709.78
2022-07-31T13:37:07.267Z,99718.06
2022-07-31T13:39:55.513Z,99711.41
2022-07-31T13:42:44.834Z,99703.50
2022-07-31T13:45:32.825Z,99687.69
2022-07-31T13:48:20.831Z,99689.75
2022-07-31T13:51:08.844Z,99695.59
2022-07-31T13:53:57.040Z,99692.31
2022-07-31T13:56:45.057Z,99683.50
2022-07-31T13:59:34.656Z,99675.78
2022-07-31T14:02:22.706Z,99671.94
2022-07-31T14:05:11.156Z,99677.22
2022-07-31T14:08:32.661Z,99689.72
2022-07-31T14:11:13.813Z,99677.38
2022-07-31T14:14:03.052Z,99674.63
2022-07-31T14:16:52.385Z,99663.19
2022-07-31T14:19:44.617Z,99662.28
2022-07-31T14:22:32.760Z,99655.34
2022-07-31T14:25:20.882Z,99660.16
2022-07-31T14:28:10.625Z,99663.59
2022-07-31T14:30:58.642Z,99654.88
2022-07-31T14:33:48.108Z,99656.47
2022-07-31T14:36:36.107Z,99650.56
2022-07-31T14:39:24.126Z,99664.72
2022-07-31T14:42:12.640Z,99661.78
2022-07-31T14:45:02.883Z,99643.97
2022-07-31T14:47:51.374Z,99654.44
2022-07-31T14:50:40.860Z,99651.66
2022-07-31T14:53:28.991Z,99652.38
2022-07-31T14:56:30.682Z,99661.47
2022-07-31T14:59:25.099Z,99648.81
2022-07-31T15:02:13.165Z,99650.22
2022-07-31T15:06:39.869Z,99657.88
2022-07-31T15:08:10.605Z,99640.22
2022-07-31T15:10:58.660Z,99645.47
2022-07-31T15:13:46.688Z,99648.88
2022-07-31T15:16:34.775Z,99648.53
2022-07-31T15:19:22.802Z,99642.78
2022-07-31T15:22:17.138Z,99638.31
2022-07-31T15:25:08.639Z,99639.09
2022-07-31T15:27:56.835Z,99642.38
2022-07-31T15:30:44.926Z,99627.34
2022-07-31T15:33:33.342Z,99630.44
2022-07-31T15:36:24.493Z,99632.47
2022-07-31T15:39:12.502Z,99634.25
2022-07-31T15:42:02.599Z,99626.81
2022-07-31T15:44:50.614Z,99611.78
2022-07-31T15:47:39.305Z,99628.34
2022-07-31T15:50:27.400Z,99624.72
2022-07-31T15:53:15.409Z,99622.69
2022-07-31T15:56:03.520Z,99595.59
2022-07-31T15:58:54.775Z,99610.41
2022-07-31T16:01:42.765Z,99609.22
2022-07-31T16:04:31.588Z,99615.41
2022-07-31T16:08:29.638Z,99605.19
2022-07-31T16:10:28.230Z,99603.75
2022-07-31T16:13:16.263Z,99599.03
2022-07-31T16:16:06.329Z,99605.28
2022-07-31T16:18:54.378Z,99604.53
2022-07-31T16:21:42.429Z,99603.50
2022-07-31T16:24:30.508Z,99598.28
2022-07-31T16:27:18.530Z,99597.41
2022-07-31T16:30:08.410Z,99595.75
2022-07-31T16:32:57.809Z,99595.97
2022-07-31T16:35:45.806Z,99593.69
2022-07-31T16:38:34.254Z,99588.19
2022-07-31T16:41:22.759Z,99591.59
2022-07-31T16:44:10.753Z,99586.00
2022-07-31T16:46:58.745Z,99583.03
2022-07-31T16:49:48.636Z,99592.63
2022-07-31T16:52:36.835Z,99588.38
2022-07-31T16:55:46.134Z,99598.72
2022-07-31T16:58:35.682Z,99576.03
2022-07-31T17:01:57.855Z,99582.28
2022-07-31T17:04:31.879Z,99597.47
2022-07-31T17:07:21.217Z,99599.19
2022-07-31T17:10:09.838Z,99595.94
2022-07-31T17:12:57.825Z,99588.09
2022-07-31T17:15:45.836Z,99586.78
2022-07-31T17:18:34.056Z,99594.78
2022-07-31T17:21:23.738Z,99586.84
2022-07-31T17:24:20.225Z,99575.59
2022-07-31T17:27:10.738Z,99579.06
2022-07-31T17:29:58.888Z,99580.56
2022-07-31T17:32:46.913Z,99587.47
2022-07-31T17:35:35.249Z,99584.28
2022-07-31T17:38:23.261Z,99586.47
2022-07-31T17:41:25.114Z,99582.25
2022-07-31T17:44:14.692Z,99588.03
2022-07-31T17:47:03.753Z,99586.03
2022-07-31T17:49:54.136Z,99593.09
2022-07-31T17:52:42.172Z,99594.44
2022-07-31T17:55:30.238Z,99596.47
2022-07-31T17:58:20.114Z,99606.53
2022-07-31T18:01:08.367Z,99602.44
2022-07-31T18:03:56.457Z,99602.72
2022-07-31T18:06:45.214Z,99604.03
2022-07-31T18:09:35.101Z,99603.53
2022-07-31T18:12:24.354Z,99598.34
2022-07-31T18:15:14.567Z,99610.72
2022-07-31T18:18:02.578Z,99616.88
2022-07-31T18:20:50.580Z,99615.84
2022-07-31T18:23:43.607Z,99620.72
2022-07-31T18:26:37.205Z,99626.09
2022-07-31T18:29:25.349Z,99626.09
2022-07-31T18:32:14.704Z,99625.75
2022-07-31T18:35:03.202Z,99621.34
2022-07-31T18:37:52.590Z,99627.97
2022-07-31T18:40:40.643Z,99629.88
2022-07-31T18:43:28.836Z,99619.75
2022-07-31T18:46:16.926Z,99631.38
2022-07-31T18:49:07.656Z,99636.03
2022-07-31T18:52:15.597Z,99642.22
2022-07-31T18:55:03.723Z,99626.53
2022-07-31T18:57:51.798Z,99641.53
2022-07-31T19:00:40.122Z,99647.16
2022-07-31T19:03:29.871Z,99648.50
2022-07-31T19:06:19.467Z,99652.25
2022-07-31T19:09:07.447Z,99657.38
2022-07-31T19:11:58.782Z,99662.66
2022-07-31T19:14:47.054Z,99663.53
2022-07-31T19:17:44.045Z,99655.06
2022-07-31T19:20:40.433Z,99660.41
2022-07-31T19:23:43.670Z,99671.63
2022-07-31T19:26:31.775Z,99669.03
2022-07-31T19:29:20.658Z,99664.31
2022-07-31T19:32:08.987Z,99674.56
2022-07-31T19:34:57.180Z,99673.59
2022-07-31T19:37:45.230Z,99683.06
2022-07-31T19:40:34.630Z,99678.00
2022-07-31T19:43:22.708Z,99685.53
2022-07-31T19:46:12.746Z,99696.03
2022-07-31T19:49:02.766Z,99689.97
2022-07-31T19:51:50.818Z,99679.38
2022-07-31T19:54:39.755Z,99684.19
2022-07-31T19:57:29.126Z,99702.28
2022-07-31T20:00:17.339Z,99700.28
2022-07-31T20:03:05.352Z,99705.25
2022-07-31T20:05:53.460Z,99709.44
2022-07-31T20:08:41.477Z,99710.84
2022-07-31T20:11:29.542Z,99713.34
2022-07-31T20:14:18.943Z,99713.66
2022-07-31T20:17:07.004Z,99716.75
2022-07-31T20:20:14.737Z,99717.69
2022-07-31T20:23:05.410Z,99567.91
2022-07-31T20:25:53.929Z,99717.91
2022-07-31T20:28:42.489Z,99719.94
2022-07-31T20:31:31.949Z,99717.56
2022-07-31T20:34:20.030Z,99720.16
2022-07-31T20:37:08.084Z,99719.03
2022-07-31T20:39:56.124Z,99718.53
2022-07-31T20:42:44.315Z,99720.50
2022-07-31T20:45:32.601Z,99728.19
2022-07-31T20:48:32.414Z,99732.50
2022-07-31T20:51:23.165Z,99726.38
2022-07-31T20:54:11.222Z,99713.84
2022-07-31T20:56:59.271Z,99723.00
2022-07-31T20:59:47.291Z,99723.00
2022-07-31T21:02:35.476Z,99727.50
2022-07-31T21:05:29.181Z,99732.31
2022-07-31T21:08:17.802Z,99728.56
2022-07-31T21:11:05.983Z,99732.19
2022-07-31T21:13:53.954Z,99724.94
2022-07-31T21:16:42.431Z,99730.78
2022-07-31T21:19:30.397Z,99738.63
2022-07-31T21:22:19.752Z,99735.59
2022-07-31T21:25:10.223Z,99741.78
2022-07-31T21:27:58.463Z,99745.94
2022-07-31T21:30:46.841Z,99747.19
2022-07-31T21:33:35.252Z,99753.69
2022-07-31T21:36:23.817Z,99755.81
2022-07-31T21:39:18.717Z,99752.00
2022-07-31T21:42:08.479Z,99752.34
2022-07-31T21:44:57.108Z,99761.84
2022-07-31T21:47:53.065Z,99761.94
2022-07-31T21:50:43.994Z,99775.91
2022-07-31T21:53:31.977Z,99776.47
2022-07-31T21:56:21.391Z,99776.81
2022-07-31T21:59:09.397Z,99764.06
2022-07-31T22:02:01.991Z,99775.66
2022-07-31T22:05:08.118Z,99784.38
2022-07-31T22:07:56.196Z,99776.56
2022-07-31T22:10:44.615Z,99792.91
2022-07-31T22:13:34.004Z,99790.09
2022-07-31T22:16:22.097Z,99798.47
2022-07-31T22:19:11.739Z,99787.84
2022-07-31T22:22:01.038Z,99779.81
2022-07-31T22:24:49.614Z,99790.53
2022-07-31T22:27:56.451Z,99797.13
2022-07-31T22:30:46.682Z,99794.88
2022-07-31T22:33:34.840Z,99791.88
2022-07-31T22:36:25.015Z,99782.00
2022-07-31T22:39:13.241Z,99800.66
2022-07-31T22:42:01.467Z,99798.72
2022-07-31T22:44:49.789Z,99794.56
2022-07-31T22:47:39.878Z,99804.53
2022-07-31T22:50:28.003Z,99806.97
2022-07-31T22:53:17.677Z,99812.56
2022-07-31T22:56:05.882Z,99809.00
2022-07-31T22:58:54.724Z,99811.66
2022-07-31T23:01:42.794Z,99816.25
2022-07-31T23:04:32.186Z,99824.72
2022-07-31T23:07:20.192Z,99826.38
2022-07-31T23:10:11.069Z,99828.81
2022-07-31T23:12:59.161Z,99831.28
2022-07-31T23:15:47.157Z,99834.06
2022-07-31T23:18:35.208Z,99838.63
2022-07-31T23:21:25.250Z,99835.66
2022-07-31T23:24:13.307Z,99833.34
2022-07-31T23:27:08.017Z,99834.97
2022-07-31T23:29:56.300Z,99844.09
2022-07-31T23:32:44.350Z,99842.50
2022-07-31T23:35:32.332Z,99847.81
2022-07-31T23:38:21.754Z,99837.66
2022-07-31T23:41:09.995Z,99851.59
2022-07-31T23:43:57.045Z,99845.31
2022-07-31T23:46:45.250Z,99842.44
2022-07-31T23:49:37.576Z,99841.03
2022-07-31T23:52:25.690Z,99842.25
2022-07-31T23:55:15.096Z,99846.88
2022-07-31T23:58:03.184Z,99848.34
